sensor_id;sensor_type;location;lat;lon;timestamp;P1;P2;P0
44871;PMS7003;30602;51.060;17.226;2022-12-07T00:00:17;18;16;10
44871;PMS7003;30602;51.060;17.226;2022-12-07T00:03:58;17;15;11
44871;PMS7003;30602;51.060;17.226;2022-12-07T00:07:12;13;12;8
44871;PMS7003;30602;51.060;17.226;2022-12-07T00:10:42;18;15;10
44871;PMS7003;30602;51.060;17.226;2022-12-07T00:14:30;17;14;8
44871;PMS7003;30602;51.060;17.226;2022-12-07T00:18:37;15;13;10
44871;PMS7003;30602;51.060;17.226;2022-12-07T00:21:50;16;13;10
44871;PMS7003;30602;51.060;17.226;2022-12-07T00:25:10;14;12;9
44871;PMS7003;30602;51.060;17.226;2022-12-07T00:28:56;14;12;8
44871;PMS7003;30602;51.060;17.226;2022-12-07T00:32:33;16;11;9
44871;PMS7003;30602;51.060;17.226;2022-12-07T00:35:44;10;9;7
44871;PMS7003;30602;51.060;17.226;2022-12-07T00:39:20;13;11;7
44871;PMS7003;30602;51.060;17.226;2022-12-07T00:42:29;12;10;6
44871;PMS7003;30602;51.060;17.226;2022-12-07T00:46:22;8;8;6
44871;PMS7003;30602;51.060;17.226;2022-12-07T00:49:42;10;6;5
44871;PMS7003;30602;51.060;17.226;2022-12-07T00:57:21;7;5;5
44871;PMS7003;30602;51.060;17.226;2022-12-07T01:01:02;7;5;4
44871;PMS7003;30602;51.060;17.226;2022-12-07T01:04:34;7;5;4
44871;PMS7003;30602;51.060;17.226;2022-12-07T01:08:17;4;2;2
44871;PMS7003;30602;51.060;17.226;2022-12-07T01:12:35;5;5;4
44871;PMS7003;30602;51.060;17.226;2022-12-07T01:15:59;2;2;2
44871;PMS7003;30602;51.060;17.226;2022-12-07T01:19:53;4;4;3
44871;PMS7003;30602;51.060;17.226;2022-12-07T01:23:02;3;3;3
44871;PMS7003;30602;51.060;17.226;2022-12-07T01:26:41;4;2;1
44871;PMS7003;30602;51.060;17.226;2022-12-07T01:30:40;4;3;2
44871;PMS7003;30602;51.060;17.226;2022-12-07T01:34:43;4;3;2
44871;PMS7003;30602;51.060;17.226;2022-12-07T01:38:14;6;3;3
44871;PMS7003;30602;51.060;17.226;2022-12-07T01:41:30;2;2;2
44871;PMS7003;30602;51.060;17.226;2022-12-07T01:53:06;4;3;2
44871;PMS7003;30602;51.060;17.226;2022-12-07T01:57:16;5;4;3
44871;PMS7003;30602;51.060;17.226;2022-12-07T02:00:40;3;3;2
44871;PMS7003;30602;51.060;17.226;2022-12-07T02:03:51;5;3;3
44871;PMS7003;30602;51.060;17.226;2022-12-07T02:07:20;3;3;2
44871;PMS7003;30602;51.060;17.226;2022-12-07T02:11:29;4;4;3
44871;PMS7003;30602;51.060;17.226;2022-12-07T02:15:03;3;3;2
44871;PMS7003;30602;51.060;17.226;2022-12-07T02:29:31;3;3;2
44871;PMS7003;30602;51.060;17.226;2022-12-07T02:40:39;1;1;1
44871;PMS7003;30602;51.060;17.226;2022-12-07T02:48:03;3;2;1
44871;PMS7003;30602;51.060;17.226;2022-12-07T02:51:17;2;1;0
44871;PMS7003;30602;51.060;17.226;2022-12-07T02:54:51;1;1;1
44871;PMS7003;30602;51.060;17.226;2022-12-07T03:09:43;1;0;0
44871;PMS7003;30602;51.060;17.226;2022-12-07T03:18:01;2;1;0
44871;PMS7003;30602;51.060;17.226;2022-12-07T03:21:42;1;1;0
44871;PMS7003;30602;51.060;17.226;2022-12-07T03:25:31;0;0;0
44871;PMS7003;30602;51.060;17.226;2022-12-07T03:28:52;1;1;0
44871;PMS7003;30602;51.060;17.226;2022-12-07T03:35:50;1;1;1
44871;PMS7003;30602;51.060;17.226;2022-12-07T03:45:04;2;2;2
44871;PMS7003;30602;51.060;17.226;2022-12-07T03:48:35;2;2;1
44871;PMS7003;30602;51.060;17.226;2022-12-07T03:53:02;2;2;2
44871;PMS7003;30602;51.060;17.226;2022-12-07T03:56:42;2;2;1
44871;PMS7003;30602;51.060;17.226;2022-12-07T04:00:13;3;3;3
44871;PMS7003;30602;51.060;17.226;2022-12-07T04:03:46;3;2;2
44871;PMS7003;30602;51.060;17.226;2022-12-07T04:06:57;2;2;2
44871;PMS7003;30602;51.060;17.226;2022-12-07T04:10:17;3;1;1
44871;PMS7003;30602;51.060;17.226;2022-12-07T04:13:31;2;2;0
44871;PMS7003;30602;51.060;17.226;2022-12-07T04:16:55;3;1;1
44871;PMS7003;30602;51.060;17.226;2022-12-07T04:20:26;5;3;2
44871;PMS7003;30602;51.060;17.226;2022-12-07T04:23:49;3;3;2
44871;PMS7003;30602;51.060;17.226;2022-12-07T04:27:40;1;1;1
44871;PMS7003;30602;51.060;17.226;2022-12-07T04:31:31;3;1;1
44871;PMS7003;30602;51.060;17.226;2022-12-07T04:34:42;2;1;1
44871;PMS7003;30602;51.060;17.226;2022-12-07T04:38:24;6;2;1
44871;PMS7003;30602;51.060;17.226;2022-12-07T04:42:07;2;2;1
44871;PMS7003;30602;51.060;17.226;2022-12-07T04:45:45;4;3;3
44871;PMS7003;30602;51.060;17.226;2022-12-07T04:49:35;2;2;0
44871;PMS7003;30602;51.060;17.226;2022-12-07T04:52:45;0;0;0
44871;PMS7003;30602;51.060;17.226;2022-12-07T04:59:50;2;2;1
44871;PMS7003;30602;51.060;17.226;2022-12-07T05:04:14;3;3;2
44871;PMS7003;30602;51.060;17.226;2022-12-07T05:12:20;2;2;1
44871;PMS7003;30602;51.060;17.226;2022-12-07T05:15:32;1;1;0
44871;PMS7003;30602;51.060;17.226;2022-12-07T05:19:04;2;2;1
44871;PMS7003;30602;51.060;17.226;2022-12-07T05:22:56;3;3;2
44871;PMS7003;30602;51.060;17.226;2022-12-07T05:26:04;4;2;2
44871;PMS7003;30602;51.060;17.226;2022-12-07T05:29:25;3;3;3
44871;PMS7003;30602;51.060;17.226;2022-12-07T05:32:54;9;4;3
44871;PMS7003;30602;51.060;17.226;2022-12-07T05:36:19;4;2;1
44871;PMS7003;30602;51.060;17.226;2022-12-07T05:40:15;3;2;1
44871;PMS7003;30602;51.060;17.226;2022-12-07T05:43:26;3;3;2
44871;PMS7003;30602;51.060;17.226;2022-12-07T05:46:48;7;6;5
44871;PMS7003;30602;51.060;17.226;2022-12-07T05:50:41;6;4;3
44871;PMS7003;30602;51.060;17.226;2022-12-07T05:54:11;10;6;5
44871;PMS7003;30602;51.060;17.226;2022-12-07T05:57:39;7;6;4
44871;PMS7003;30602;51.060;17.226;2022-12-07T06:05:07;9;7;5
44871;PMS7003;30602;51.060;17.226;2022-12-07T06:09:11;6;6;5
44871;PMS7003;30602;51.060;17.226;2022-12-07T06:13:01;10;8;5
44871;PMS7003;30602;51.060;17.226;2022-12-07T06:16:14;9;7;5
44871;PMS7003;30602;51.060;17.226;2022-12-07T06:19:35;10;8;5
44871;PMS7003;30602;51.060;17.226;2022-12-07T06:23:04;12;10;6
44871;PMS7003;30602;51.060;17.226;2022-12-07T06:26:56;9;8;6
44871;PMS7003;30602;51.060;17.226;2022-12-07T06:30:41;12;10;6
44871;PMS7003;30602;51.060;17.226;2022-12-07T06:34:13;12;11;8
44871;PMS7003;30602;51.060;17.226;2022-12-07T06:38:17;15;10;6
44871;PMS7003;30602;51.060;17.226;2022-12-07T06:41:29;13;11;8
44871;PMS7003;30602;51.060;17.226;2022-12-07T06:45:31;18;14;8
44871;PMS7003;30602;51.060;17.226;2022-12-07T06:48:51;18;15;9
44871;PMS7003;30602;51.060;17.226;2022-12-07T06:52:12;15;13;9
44871;PMS7003;30602;51.060;17.226;2022-12-07T06:55:24;18;12;9
44871;PMS7003;30602;51.060;17.226;2022-12-07T07:03:12;20;16;8
44871;PMS7003;30602;51.060;17.226;2022-12-07T07:06:26;14;11;8
44871;PMS7003;30602;51.060;17.226;2022-12-07T07:10:29;19;14;9
44871;PMS7003;30602;51.060;17.226;2022-12-07T07:13:40;14;13;9
44871;PMS7003;30602;51.060;17.226;2022-12-07T07:16:55;15;12;8
44871;PMS7003;30602;51.060;17.226;2022-12-07T07:20:07;11;10;6
44871;PMS7003;30602;51.060;17.226;2022-12-07T07:23:48;17;14;9
44871;PMS7003;30602;51.060;17.226;2022-12-07T07:27:22;15;11;8
44871;PMS7003;30602;51.060;17.226;2022-12-07T07:30:57;16;11;8
44871;PMS7003;30602;51.060;17.226;2022-12-07T07:34:51;21;15;10
44871;PMS7003;30602;51.060;17.226;2022-12-07T07:39:01;14;14;10
44871;PMS7003;30602;51.060;17.226;2022-12-07T07:42:19;19;18;9
44871;PMS7003;30602;51.060;17.226;2022-12-07T07:46:12;21;16;10
44871;PMS7003;30602;51.060;17.226;2022-12-07T07:49:43;15;13;9
44871;PMS7003;30602;51.060;17.226;2022-12-07T07:52:56;16;14;9
44871;PMS7003;30602;51.060;17.226;2022-12-07T07:56:29;16;15;8
44871;PMS7003;30602;51.060;17.226;2022-12-07T08:00:12;14;11;8
44871;PMS7003;30602;51.060;17.226;2022-12-07T08:03:51;13;13;9
44871;PMS7003;30602;51.060;17.226;2022-12-07T08:08:01;25;18;10
44871;PMS7003;30602;51.060;17.226;2022-12-07T08:11:18;16;15;10
44871;PMS7003;30602;51.060;17.226;2022-12-07T08:14:39;19;14;9
44871;PMS7003;30602;51.060;17.226;2022-12-07T08:18:45;17;15;9
44871;PMS7003;30602;51.060;17.226;2022-12-07T08:22:01;17;13;8
44871;PMS7003;30602;51.060;17.226;2022-12-07T08:25:17;23;17;12
44871;PMS7003;30602;51.060;17.226;2022-12-07T08:29:12;22;19;12
44871;PMS7003;30602;51.060;17.226;2022-12-07T08:32:50;23;17;8
44871;PMS7003;30602;51.060;17.226;2022-12-07T08:36:05;20;17;11
44871;PMS7003;30602;51.060;17.226;2022-12-07T08:40:05;23;17;12
44871;PMS7003;30602;51.060;17.226;2022-12-07T08:44:07;18;15;10
44871;PMS7003;30602;51.060;17.226;2022-12-07T08:47:25;23;17;10
44871;PMS7003;30602;51.060;17.226;2022-12-07T08:50:43;20;16;10
44871;PMS7003;30602;51.060;17.226;2022-12-07T08:54:24;20;19;11
44871;PMS7003;30602;51.060;17.226;2022-12-07T08:57:39;25;21;12
44871;PMS7003;30602;51.060;17.226;2022-12-07T09:01:01;19;16;12
44871;PMS7003;30602;51.060;17.226;2022-12-07T09:04:33;21;15;11
44871;PMS7003;30602;51.060;17.226;2022-12-07T09:07:48;24;21;10
44871;PMS7003;30602;51.060;17.226;2022-12-07T09:11:29;24;19;11
44871;PMS7003;30602;51.060;17.226;2022-12-07T09:15:05;15;13;9
44871;PMS7003;30602;51.060;17.226;2022-12-07T09:18:48;16;15;9
44871;PMS7003;30602;51.060;17.226;2022-12-07T09:22:20;16;11;8
44871;PMS7003;30602;51.060;17.226;2022-12-07T09:25:53;21;17;9
44871;PMS7003;30602;51.060;17.226;2022-12-07T09:29:51;22;17;12
44871;PMS7003;30602;51.060;17.226;2022-12-07T09:33:31;17;15;10
44871;PMS7003;30602;51.060;17.226;2022-12-07T09:37:05;16;12;9
44871;PMS7003;30602;51.060;17.226;2022-12-07T09:40:39;17;15;10
44871;PMS7003;30602;51.060;17.226;2022-12-07T09:44:31;19;14;9
44871;PMS7003;30602;51.060;17.226;2022-12-07T09:47:55;11;10;7
44871;PMS7003;30602;51.060;17.226;2022-12-07T09:51:34;15;11;8
44871;PMS7003;30602;51.060;17.226;2022-12-07T09:55:35;16;15;10
44871;PMS7003;30602;51.060;17.226;2022-12-07T09:58:47;20;16;10
44871;PMS7003;30602;51.060;17.226;2022-12-07T10:05:52;18;16;10
44871;PMS7003;30602;51.060;17.226;2022-12-07T10:09:40;24;18;10
44871;PMS7003;30602;51.060;17.226;2022-12-07T10:13:15;18;15;10
44871;PMS7003;30602;51.060;17.226;2022-12-07T10:17:36;21;15;9
44871;PMS7003;30602;51.060;17.226;2022-12-07T10:24:24;15;11;8
44871;PMS7003;30602;51.060;17.226;2022-12-07T10:28:18;16;13;8
44871;PMS7003;30602;51.060;17.226;2022-12-07T10:31:29;16;12;9
44871;PMS7003;30602;51.060;17.226;2022-12-07T10:38:50;10;9;6
44871;PMS7003;30602;51.060;17.226;2022-12-07T10:43:02;16;11;8
44871;PMS7003;30602;51.060;17.226;2022-12-07T10:46:31;12;10;8
44871;PMS7003;30602;51.060;17.226;2022-12-07T10:58:23;15;14;10
44871;PMS7003;30602;51.060;17.226;2022-12-07T11:05:51;20;17;9
44871;PMS7003;30602;51.060;17.226;2022-12-07T11:13:02;17;12;9
44871;PMS7003;30602;51.060;17.226;2022-12-07T11:39:01;13;10;7
44871;PMS7003;30602;51.060;17.226;2022-12-07T11:45:59;20;19;13
44871;PMS7003;30602;51.060;17.226;2022-12-07T11:52:55;21;17;13
44871;PMS7003;30602;51.060;17.226;2022-12-07T11:57:09;28;24;16
44871;PMS7003;30602;51.060;17.226;2022-12-07T12:32:39;5;4;4
44871;PMS7003;30602;51.060;17.226;2022-12-07T12:36:45;10;9;6
44871;PMS7003;30602;51.060;17.226;2022-12-07T12:46:44;9;7;6
44871;PMS7003;30602;51.060;17.226;2022-12-07T12:53:46;9;6;5
44871;PMS7003;30602;51.060;17.226;2022-12-07T13:04:53;11;10;7
44871;PMS7003;30602;51.060;17.226;2022-12-07T13:08:35;9;8;6
44871;PMS7003;30602;51.060;17.226;2022-12-07T13:12:15;12;10;8
44871;PMS7003;30602;51.060;17.226;2022-12-07T13:16:36;9;9;7
44871;PMS7003;30602;51.060;17.226;2022-12-07T13:24:13;14;13;9
44871;PMS7003;30602;51.060;17.226;2022-12-07T13:27:43;14;12;8
44871;PMS7003;30602;51.060;17.226;2022-12-07T13:38:34;9;9;7
44871;PMS7003;30602;51.060;17.226;2022-12-07T13:46:10;8;8;6
44871;PMS7003;30602;51.060;17.226;2022-12-07T13:49:30;15;13;10
44871;PMS7003;30602;51.060;17.226;2022-12-07T13:53:30;25;17;12
44871;PMS7003;30602;51.060;17.226;2022-12-07T13:57:31;21;20;14
44871;PMS7003;30602;51.060;17.226;2022-12-07T14:00:58;20;16;11
44871;PMS7003;30602;51.060;17.226;2022-12-07T14:15:32;25;23;16
44871;PMS7003;30602;51.060;17.226;2022-12-07T14:22:54;21;18;12
44871;PMS7003;30602;51.060;17.226;2022-12-07T14:26:48;18;16;12
44871;PMS7003;30602;51.060;17.226;2022-12-07T14:30:31;21;17;11
44871;PMS7003;30602;51.060;17.226;2022-12-07T14:33:46;14;11;8
44871;PMS7003;30602;51.060;17.226;2022-12-07T14:36:56;15;13;9
44871;PMS7003;30602;51.060;17.226;2022-12-07T14:41:17;14;12;10
44871;PMS7003;30602;51.060;17.226;2022-12-07T14:45:12;16;15;10
44871;PMS7003;30602;51.060;17.226;2022-12-07T14:48:26;16;15;11
44871;PMS7003;30602;51.060;17.226;2022-12-07T14:52:10;18;16;12
44871;PMS7003;30602;51.060;17.226;2022-12-07T14:55:32;18;15;12
44871;PMS7003;30602;51.060;17.226;2022-12-07T14:59:23;24;17;11
44871;PMS7003;30602;51.060;17.226;2022-12-07T15:02:55;14;14;9
44871;PMS7003;30602;51.060;17.226;2022-12-07T15:06:10;18;16;11
44871;PMS7003;30602;51.060;17.226;2022-12-07T15:10:13;14;12;9
44871;PMS7003;30602;51.060;17.226;2022-12-07T15:13:48;20;18;13
44871;PMS7003;30602;51.060;17.226;2022-12-07T15:18:16;22;20;15
44871;PMS7003;30602;51.060;17.226;2022-12-07T15:22:25;34;28;18
44871;PMS7003;30602;51.060;17.226;2022-12-07T15:26:11;24;21;16
44871;PMS7003;30602;51.060;17.226;2022-12-07T15:29:50;41;38;24
44871;PMS7003;30602;51.060;17.226;2022-12-07T15:33:19;42;32;21
44871;PMS7003;30602;51.060;17.226;2022-12-07T15:36:52;31;25;17
44871;PMS7003;30602;51.060;17.226;2022-12-07T15:40:05;15;15;10
44871;PMS7003;30602;51.060;17.226;2022-12-07T15:43:38;21;19;14
44871;PMS7003;30602;51.060;17.226;2022-12-07T15:47:36;22;20;13
44871;PMS7003;30602;51.060;17.226;2022-12-07T15:51:08;20;18;13
44871;PMS7003;30602;51.060;17.226;2022-12-07T15:54:38;21;17;12
44871;PMS7003;30602;51.060;17.226;2022-12-07T15:58:03;16;16;12
44871;PMS7003;30602;51.060;17.226;2022-12-07T16:01:31;21;19;14
44871;PMS7003;30602;51.060;17.226;2022-12-07T16:08:36;14;14;10
44871;PMS7003;30602;51.060;17.226;2022-12-07T16:12:08;17;16;12
44871;PMS7003;30602;51.060;17.226;2022-12-07T16:15:45;29;26;15
44871;PMS7003;30602;51.060;17.226;2022-12-07T16:19:35;57;44;22
44871;PMS7003;30602;51.060;17.226;2022-12-07T16:22:58;28;25;17
44871;PMS7003;30602;51.060;17.226;2022-12-07T16:26:38;28;22;16
44871;PMS7003;30602;51.060;17.226;2022-12-07T16:30:16;22;19;12
44871;PMS7003;30602;51.060;17.226;2022-12-07T16:33:38;13;13;10
44871;PMS7003;30602;51.060;17.226;2022-12-07T16:37:14;14;12;9
44871;PMS7003;30602;51.060;17.226;2022-12-07T16:44:51;15;12;9
44871;PMS7003;30602;51.060;17.226;2022-12-07T16:48:29;13;11;8
44871;PMS7003;30602;51.060;17.226;2022-12-07T16:52:11;17;13;11
44871;PMS7003;30602;51.060;17.226;2022-12-07T16:59:38;11;11;8
44871;PMS7003;30602;51.060;17.226;2022-12-07T17:02:48;9;9;6
44871;PMS7003;30602;51.060;17.226;2022-12-07T17:05:59;22;17;12
44871;PMS7003;30602;51.060;17.226;2022-12-07T17:09:32;33;23;17
44871;PMS7003;30602;51.060;17.226;2022-12-07T17:13:30;30;27;18
44871;PMS7003;30602;51.060;17.226;2022-12-07T17:17:04;9;9;7
44871;PMS7003;30602;51.060;17.226;2022-12-07T17:20:35;12;9;7
44871;PMS7003;30602;51.060;17.226;2022-12-07T17:24:10;6;6;5
44871;PMS7003;30602;51.060;17.226;2022-12-07T17:27:23;8;6;5
44871;PMS7003;30602;51.060;17.226;2022-12-07T17:31:15;6;6;5
44871;PMS7003;30602;51.060;17.226;2022-12-07T17:34:45;17;16;11
44871;PMS7003;30602;51.060;17.226;2022-12-07T17:38:31;25;20;14
44871;PMS7003;30602;51.060;17.226;2022-12-07T17:42:08;27;24;17
44871;PMS7003;30602;51.060;17.226;2022-12-07T17:45:29;14;13;11
44871;PMS7003;30602;51.060;17.226;2022-12-07T17:49:05;11;9;6
44871;PMS7003;30602;51.060;17.226;2022-12-07T17:52:43;18;17;9
44871;PMS7003;30602;51.060;17.226;2022-12-07T17:56:23;11;8;7
44871;PMS7003;30602;51.060;17.226;2022-12-07T17:59:35;17;14;9
44871;PMS7003;30602;51.060;17.226;2022-12-07T18:03:21;14;12;10
44871;PMS7003;30602;51.060;17.226;2022-12-07T18:07:15;17;16;11
44871;PMS7003;30602;51.060;17.226;2022-12-07T18:11:20;17;15;12
44871;PMS7003;30602;51.060;17.226;2022-12-07T18:14:51;16;13;10
44871;PMS7003;30602;51.060;17.226;2022-12-07T18:18:02;19;14;10
44871;PMS7003;30602;51.060;17.226;2022-12-07T18:21:29;20;17;13
44871;PMS7003;30602;51.060;17.226;2022-12-07T18:25:10;18;15;12
44871;PMS7003;30602;51.060;17.226;2022-12-07T18:32:46;27;23;15
44871;PMS7003;30602;51.060;17.226;2022-12-07T18:36:03;20;17;11
44871;PMS7003;30602;51.060;17.226;2022-12-07T18:39:35;24;18;14
44871;PMS7003;30602;51.060;17.226;2022-12-07T18:43:14;35;27;15
44871;PMS7003;30602;51.060;17.226;2022-12-07T18:46:43;34;25;16
44871;PMS7003;30602;51.060;17.226;2022-12-07T18:50:03;29;25;16
44871;PMS7003;30602;51.060;17.226;2022-12-07T18:53:32;25;22;16
44871;PMS7003;30602;51.060;17.226;2022-12-07T18:56:50;32;28;19
44871;PMS7003;30602;51.060;17.226;2022-12-07T19:00:47;41;33;21
44871;PMS7003;30602;51.060;17.226;2022-12-07T19:04:19;45;38;24
44871;PMS7003;30602;51.060;17.226;2022-12-07T19:07:39;37;32;21
44871;PMS7003;30602;51.060;17.226;2022-12-07T19:14:52;29;24;17
44871;PMS7003;30602;51.060;17.226;2022-12-07T19:18:26;31;25;19
44871;PMS7003;30602;51.060;17.226;2022-12-07T19:22:24;42;32;21
44871;PMS7003;30602;51.060;17.226;2022-12-07T19:25:35;34;31;19
44871;PMS7003;30602;51.060;17.226;2022-12-07T19:28:55;40;34;19
44871;PMS7003;30602;51.060;17.226;2022-12-07T19:32:08;47;36;22
44871;PMS7003;30602;51.060;17.226;2022-12-07T19:35:46;39;32;21
44871;PMS7003;30602;51.060;17.226;2022-12-07T19:39:02;37;29;18
44871;PMS7003;30602;51.060;17.226;2022-12-07T19:42:36;64;49;30
44871;PMS7003;30602;51.060;17.226;2022-12-07T19:46:08;48;39;25
44871;PMS7003;30602;51.060;17.226;2022-12-07T19:49:50;68;50;31
44871;PMS7003;30602;51.060;17.226;2022-12-07T19:53:04;62;50;30
44871;PMS7003;30602;51.060;17.226;2022-12-07T19:56:32;65;50;30
44871;PMS7003;30602;51.060;17.226;2022-12-07T19:59:47;43;34;19
44871;PMS7003;30602;51.060;17.226;2022-12-07T20:03:01;43;37;24
44871;PMS7003;30602;51.060;17.226;2022-12-07T20:07:02;41;35;22
44871;PMS7003;30602;51.060;17.226;2022-12-07T20:10:44;51;43;27
44871;PMS7003;30602;51.060;17.226;2022-12-07T20:14:15;37;32;20
44871;PMS7003;30602;51.060;17.226;2022-12-07T20:17:52;31;25;17
44871;PMS7003;30602;51.060;17.226;2022-12-07T20:21:07;36;31;18
44871;PMS7003;30602;51.060;17.226;2022-12-07T20:24:35;38;32;18
44871;PMS7003;30602;51.060;17.226;2022-12-07T20:27:46;37;31;20
44871;PMS7003;30602;51.060;17.226;2022-12-07T20:31:17;34;30;18
44871;PMS7003;30602;51.060;17.226;2022-12-07T20:34:28;26;24;17
44871;PMS7003;30602;51.060;17.226;2022-12-07T20:37:37;27;22;17
44871;PMS7003;30602;51.060;17.226;2022-12-07T20:40:58;25;23;16
44871;PMS7003;30602;51.060;17.226;2022-12-07T20:45:04;30;22;17
44871;PMS7003;30602;51.060;17.226;2022-12-07T20:48:22;26;25;16
44871;PMS7003;30602;51.060;17.226;2022-12-07T20:52:26;28;25;18
44871;PMS7003;30602;51.060;17.226;2022-12-07T20:55:50;33;27;20
44871;PMS7003;30602;51.060;17.226;2022-12-07T20:59:26;30;26;16
44871;PMS7003;30602;51.060;17.226;2022-12-07T21:02:58;20;18;12
44871;PMS7003;30602;51.060;17.226;2022-12-07T21:06:15;29;25;16
44871;PMS7003;30602;51.060;17.226;2022-12-07T21:10:12;30;25;15
44871;PMS7003;30602;51.060;17.226;2022-12-07T21:13:47;30;25;15
44871;PMS7003;30602;51.060;17.226;2022-12-07T21:17:16;23;19;12
44871;PMS7003;30602;51.060;17.226;2022-12-07T21:20:26;18;16;11
44871;PMS7003;30602;51.060;17.226;2022-12-07T21:24:33;17;14;12
44871;PMS7003;30602;51.060;17.226;2022-12-07T21:28:19;18;12;9
44871;PMS7003;30602;51.060;17.226;2022-12-07T21:32:13;13;12;9
44871;PMS7003;30602;51.060;17.226;2022-12-07T21:35:21;13;12;8
44871;PMS7003;30602;51.060;17.226;2022-12-07T21:39:05;11;11;7
44871;PMS7003;30602;51.060;17.226;2022-12-07T21:42:12;8;8;6
44871;PMS7003;30602;51.060;17.226;2022-12-07T21:45:23;13;12;7
44871;PMS7003;30602;51.060;17.226;2022-12-07T21:52:14;12;10;5
44871;PMS7003;30602;51.060;17.226;2022-12-07T21:55:24;8;8;6
44871;PMS7003;30602;51.060;17.226;2022-12-07T21:59:01;12;8;6
44871;PMS7003;30602;51.060;17.226;2022-12-07T22:02:18;16;11;8
44871;PMS7003;30602;51.060;17.226;2022-12-07T22:05:37;20;14;8
44871;PMS7003;30602;51.060;17.226;2022-12-07T22:09:05;11;9;6
44871;PMS7003;30602;51.060;17.226;2022-12-07T22:12:20;20;14;8
44871;PMS7003;30602;51.060;17.226;2022-12-07T22:15:32;19;16;9
44871;PMS7003;30602;51.060;17.226;2022-12-07T22:18:41;13;12;9
44871;PMS7003;30602;51.060;17.226;2022-12-07T22:21:55;17;12;10
44871;PMS7003;30602;51.060;17.226;2022-12-07T22:25:07;16;14;9
44871;PMS7003;30602;51.060;17.226;2022-12-07T22:28:28;19;14;10
44871;PMS7003;30602;51.060;17.226;2022-12-07T22:31:56;15;12;10
44871;PMS7003;30602;51.060;17.226;2022-12-07T22:35:25;17;16;11
44871;PMS7003;30602;51.060;17.226;2022-12-07T22:38:38;18;16;10
44871;PMS7003;30602;51.060;17.226;2022-12-07T22:42:17;40;33;19
44871;PMS7003;30602;51.060;17.226;2022-12-07T22:46:10;46;36;20
44871;PMS7003;30602;51.060;17.226;2022-12-07T22:49:56;28;23;17
44871;PMS7003;30602;51.060;17.226;2022-12-07T22:53:38;17;17;12
44871;PMS7003;30602;51.060;17.226;2022-12-07T22:57:07;26;20;14
44871;PMS7003;30602;51.060;17.226;2022-12-07T23:00:43;17;13;11
44871;PMS7003;30602;51.060;17.226;2022-12-07T23:04:30;19;17;12
44871;PMS7003;30602;51.060;17.226;2022-12-07T23:08:05;49;38;23
44871;PMS7003;30602;51.060;17.226;2022-12-07T23:11:39;37;30;19
44871;PMS7003;30602;51.060;17.226;2022-12-07T23:15:02;20;19;12
44871;PMS7003;30602;51.060;17.226;2022-12-07T23:18:43;16;15;11
44871;PMS7003;30602;51.060;17.226;2022-12-07T23:22:15;23;22;17
44871;PMS7003;30602;51.060;17.226;2022-12-07T23:25:34;40;31;19
44871;PMS7003;30602;51.060;17.226;2022-12-07T23:28:56;29;25;18
44871;PMS7003;30602;51.060;17.226;2022-12-07T23:32:18;34;25;18
44871;PMS7003;30602;51.060;17.226;2022-12-07T23:36:05;30;26;18
44871;PMS7003;30602;51.060;17.226;2022-12-07T23:44:18;20;16;12
44871;PMS7003;30602;51.060;17.226;2022-12-07T23:48:04;22;17;10
44871;PMS7003;30602;51.060;17.226;2022-12-07T23:51:28;27;26;18
44871;PMS7003;30602;51.060;17.226;2022-12-07T23:54:35;26;21;14
44871;PMS7003;30602;51.060;17.226;2022-12-07T23:57:49;31;23;16
